createdAt,value
2022-09-15T00:00:57.006Z,16.19
2022-09-15T00:03:24.399Z,16.26
2022-09-15T00:05:54.292Z,16.29
2022-09-15T00:08:22.041Z,16.26
2022-09-15T00:10:53.941Z,16.28
2022-09-15T00:13:23.648Z,16.30
2022-09-15T00:15:50.600Z,16.23
2022-09-15T00:18:17.586Z,16.27
2022-09-15T00:20:45.517Z,16.26
2022-09-15T00:23:13.319Z,16.25
2022-09-15T00:25:51.474Z,16.22
2022-09-15T00:28:21.827Z,16.09
2022-09-15T00:30:51.229Z,15.98
2022-09-15T00:33:18.908Z,15.90
2022-09-15T00:35:50.485Z,15.82
2022-09-15T00:38:20.699Z,15.75
2022-09-15T00:40:55.520Z,15.68
2022-09-15T00:43:55.391Z,15.66
2022-09-15T00:46:25.081Z,15.72
2022-09-15T00:49:00.404Z,15.72
2022-09-15T00:51:52.102Z,15.69
2022-09-15T00:54:29.252Z,15.69
2022-09-15T00:57:00.228Z,15.72
2022-09-15T00:59:31.662Z,15.73
2022-09-15T01:02:15.929Z,15.75
2022-09-15T01:04:42.975Z,15.82
2022-09-15T01:07:15.241Z,15.91
2022-09-15T01:09:49.801Z,15.95
2022-09-15T01:12:17.042Z,16.00
2022-09-15T01:14:43.613Z,16.07
2022-09-15T01:17:37.954Z,16.06
2022-09-15T01:20:40.285Z,16.08
2022-09-15T01:23:27.172Z,16.05
2022-09-15T01:26:27.471Z,16.06
2022-09-15T01:29:30.998Z,16.07
2022-09-15T01:32:24.160Z,16.08
2022-09-15T01:35:02.739Z,16.08
2022-09-15T01:37:38.225Z,16.08
2022-09-15T01:40:06.416Z,16.10
2022-09-15T01:42:34.361Z,16.12
2022-09-15T01:45:07.068Z,16.12
2022-09-15T01:47:35.764Z,16.09
2022-09-15T01:50:22.451Z,16.10
2022-09-15T01:52:55.060Z,16.07
2022-09-15T01:55:36.922Z,16.07
2022-09-15T01:58:03.777Z,16.08
2022-09-15T02:00:35.371Z,16.06
2022-09-15T02:03:17.192Z,16.03
2022-09-15T02:05:51.178Z,16.03
2022-09-15T02:08:28.692Z,16.00
2022-09-15T02:11:03.263Z,15.98
2022-09-15T02:13:45.750Z,15.97
2022-09-15T02:16:20.014Z,15.98
2022-09-15T02:19:31.572Z,15.99
2022-09-15T02:22:10.723Z,15.97
2022-09-15T02:24:44.091Z,15.98
2022-09-15T02:27:21.250Z,16.03
2022-09-15T02:29:50.064Z,15.98
2022-09-15T02:32:23.193Z,15.94
2022-09-15T02:34:51.527Z,15.96
2022-09-15T02:37:24.267Z,15.93
2022-09-15T02:39:54.878Z,15.99
2022-09-15T02:42:29.745Z,15.99
2022-09-15T02:44:56.749Z,15.99
2022-09-15T02:47:24.606Z,16.00
2022-09-15T02:49:51.674Z,15.97
2022-09-15T02:52:20.827Z,15.99
2022-09-15T02:54:47.551Z,15.93
2022-09-15T02:57:14.488Z,15.91
2022-09-15T02:59:59.695Z,15.91
2022-09-15T03:02:26.740Z,15.89
2022-09-15T03:04:53.219Z,15.85
2022-09-15T03:07:22.571Z,15.83
2022-09-15T03:09:49.675Z,15.76
2022-09-15T03:12:16.153Z,15.75
2022-09-15T03:14:42.873Z,15.81
2022-09-15T03:17:09.439Z,15.83
2022-09-15T03:19:35.953Z,15.82
2022-09-15T03:22:02.376Z,15.82
2022-09-15T03:24:28.849Z,15.87
2022-09-15T03:26:55.387Z,15.87
2022-09-15T03:29:28.309Z,15.87
2022-09-15T03:31:54.837Z,15.87
2022-09-15T03:34:21.382Z,15.85
2022-09-15T03:36:47.769Z,15.91
2022-09-15T03:39:14.643Z,15.94
2022-09-15T03:41:41.178Z,15.89
2022-09-15T03:44:07.644Z,15.96
2022-09-15T03:46:34.119Z,15.89
2022-09-15T03:49:00.606Z,15.90
2022-09-15T03:51:27.345Z,15.91
2022-09-15T03:53:55.550Z,15.95
2022-09-15T03:56:24.013Z,15.92
2022-09-15T03:58:51.334Z,15.91
2022-09-15T04:01:21.372Z,15.92
2022-09-15T04:03:51.030Z,15.92
2022-09-15T04:06:22.941Z,15.92
2022-09-15T04:08:53.170Z,15.87
2022-09-15T04:11:22.084Z,15.88
2022-09-15T04:13:49.126Z,15.87
2022-09-15T04:16:23.182Z,15.89
2022-09-15T04:18:53.000Z,15.89
2022-09-15T04:21:22.889Z,15.91
2022-09-15T04:23:59.030Z,15.87
2022-09-15T04:26:35.060Z,15.84
2022-09-15T04:29:04.437Z,15.83
2022-09-15T04:31:32.195Z,15.84
2022-09-15T04:33:59.516Z,15.82
2022-09-15T04:36:28.332Z,15.86
2022-09-15T04:38:56.012Z,15.91
2022-09-15T04:41:26.660Z,15.89
2022-09-15T04:43:53.971Z,15.87
2022-09-15T04:46:21.213Z,15.84
2022-09-15T04:48:51.153Z,15.81
2022-09-15T04:51:21.390Z,15.79
2022-09-15T04:53:48.877Z,15.76
2022-09-15T04:56:18.001Z,15.82
2022-09-15T04:58:50.727Z,15.84
2022-09-15T05:01:20.251Z,15.78
2022-09-15T05:03:47.211Z,15.67
2022-09-15T05:06:17.097Z,15.64
2022-09-15T05:08:47.678Z,15.67
2022-09-15T05:11:14.214Z,15.63
2022-09-15T05:13:41.140Z,15.67
2022-09-15T05:16:12.111Z,15.60
2022-09-15T05:18:39.700Z,15.61
2022-09-15T05:21:07.478Z,15.61
2022-09-15T05:23:35.392Z,15.67
2022-09-15T05:26:03.358Z,15.68
2022-09-15T05:28:32.714Z,15.65
2022-09-15T05:30:59.556Z,15.58
2022-09-15T05:33:26.078Z,15.57
2022-09-15T05:35:57.882Z,15.60
2022-09-15T05:38:25.646Z,15.59
2022-09-15T05:40:52.488Z,15.60
2022-09-15T05:43:19.330Z,15.63
2022-09-15T05:45:54.796Z,15.54
2022-09-15T05:48:21.521Z,15.66
2022-09-15T05:50:53.755Z,15.65
2022-09-15T05:53:20.734Z,15.64
2022-09-15T05:55:47.573Z,15.65
2022-09-15T05:58:14.881Z,15.61
2022-09-15T06:00:41.730Z,15.61
2022-09-15T06:03:14.655Z,15.71
2022-09-15T06:05:41.632Z,15.73
2022-09-15T06:08:08.292Z,15.78
2022-09-15T06:10:34.838Z,15.88
2022-09-15T06:13:01.551Z,15.89
2022-09-15T06:15:28.159Z,15.89
2022-09-15T06:17:54.635Z,15.66
2022-09-15T06:20:26.818Z,15.53
2022-09-15T06:22:54.039Z,15.39
2022-09-15T06:25:20.630Z,15.42
2022-09-15T06:27:52.470Z,15.40
2022-09-15T06:30:19.198Z,15.42
2022-09-15T06:32:48.233Z,15.39
2022-09-15T06:35:15.620Z,15.38
2022-09-15T06:37:42.061Z,15.44
2022-09-15T06:40:09.124Z,15.44
2022-09-15T06:42:35.869Z,15.48
2022-09-15T06:45:02.939Z,15.44
2022-09-15T06:47:33.800Z,15.39
2022-09-15T06:50:00.794Z,15.40
2022-09-15T06:52:27.521Z,15.44
2022-09-15T06:54:53.963Z,15.45
2022-09-15T06:57:20.490Z,15.43
2022-09-15T06:59:46.954Z,15.44
2022-09-15T07:02:13.755Z,15.38
2022-09-15T07:04:40.499Z,15.41
2022-09-15T07:07:06.891Z,15.40
2022-09-15T07:09:33.420Z,15.36
2022-09-15T07:12:00.038Z,15.45
2022-09-15T07:14:26.480Z,15.49
2022-09-15T07:16:52.910Z,15.54
2022-09-15T07:19:22.300Z,15.58
2022-09-15T07:21:48.926Z,15.60
2022-09-15T07:24:15.704Z,15.65
2022-09-15T07:26:42.406Z,15.71
2022-09-15T07:29:09.658Z,15.76
2022-09-15T07:31:38.021Z,15.75
2022-09-15T07:34:05.298Z,15.70
2022-09-15T07:36:31.977Z,15.73
2022-09-15T07:38:58.572Z,15.79
2022-09-15T07:41:27.297Z,15.84
2022-09-15T07:43:55.892Z,15.89
2022-09-15T07:46:23.925Z,15.91
2022-09-15T07:48:51.314Z,15.93
2022-09-15T07:51:18.967Z,15.90
2022-09-15T07:53:47.497Z,15.98
2022-09-15T07:56:15.426Z,16.05
2022-09-15T07:58:41.973Z,16.13
2022-09-15T08:01:11.506Z,16.14
2022-09-15T08:03:46.755Z,16.15
2022-09-15T08:06:13.783Z,16.18
2022-09-15T08:08:41.259Z,16.15
2022-09-15T08:11:18.383Z,16.32
2022-09-15T08:13:51.030Z,16.34
2022-09-15T08:16:20.210Z,16.42
2022-09-15T08:18:47.016Z,16.49
2022-09-15T08:21:16.046Z,16.49
2022-09-15T08:23:43.005Z,16.48
2022-09-15T08:26:14.320Z,16.47
2022-09-15T08:28:42.042Z,16.46
2022-09-15T08:31:11.267Z,16.50
2022-09-15T08:33:43.213Z,16.48
2022-09-15T08:36:11.917Z,16.53
2022-09-15T08:38:40.505Z,16.56
2022-09-15T08:41:14.771Z,16.67
2022-09-15T08:43:47.334Z,16.55
2022-09-15T08:46:21.786Z,16.49
2022-09-15T08:49:03.620Z,16.43
2022-09-15T08:51:43.283Z,16.44
2022-09-15T08:54:16.641Z,16.43
2022-09-15T08:56:43.964Z,16.30
2022-09-15T08:59:15.952Z,16.25
2022-09-15T09:02:20.918Z,16.18
2022-09-15T09:05:15.205Z,16.18
2022-09-15T09:08:00.954Z,16.27
2022-09-15T09:10:52.321Z,16.36
2022-09-15T09:13:32.054Z,16.37
2022-09-15T09:16:29.073Z,16.43
2022-09-15T09:19:22.904Z,16.51
2022-09-15T09:22:01.784Z,16.66
2022-09-15T09:24:40.939Z,16.77
2022-09-15T09:27:24.326Z,16.82
2022-09-15T09:30:06.891Z,16.79
2022-09-15T09:32:45.356Z,16.76
2022-09-15T09:35:31.685Z,16.79
2022-09-15T09:37:59.967Z,16.84
2022-09-15T09:40:28.243Z,16.88
2022-09-15T09:42:54.862Z,17.00
2022-09-15T09:45:22.663Z,17.13
2022-09-15T09:47:52.573Z,17.18
2022-09-15T09:50:39.023Z,17.19
2022-09-15T09:53:32.880Z,17.25
2022-09-15T09:56:18.004Z,17.36
2022-09-15T09:58:45.153Z,17.45
2022-09-15T10:01:15.061Z,17.49
2022-09-15T10:03:43.266Z,17.58
2022-09-15T10:06:14.669Z,17.69
2022-09-15T10:08:59.781Z,17.76
2022-09-15T10:11:38.512Z,17.83
2022-09-15T10:14:05.028Z,17.82
2022-09-15T10:16:32.475Z,17.94
2022-09-15T10:18:59.288Z,17.93
2022-09-15T10:21:26.076Z,17.88
2022-09-15T10:23:52.496Z,17.85
2022-09-15T10:26:22.326Z,17.88
2022-09-15T10:29:12.412Z,17.89
2022-09-15T10:31:40.142Z,17.86
2022-09-15T10:34:25.652Z,17.88
2022-09-15T10:36:55.043Z,17.97
2022-09-15T10:39:34.209Z,18.10
2022-09-15T10:42:18.980Z,18.21
2022-09-15T10:45:00.015Z,18.11
2022-09-15T10:47:56.565Z,17.99
2022-09-15T10:50:26.625Z,18.00
2022-09-15T10:53:04.530Z,18.22
2022-09-15T10:55:51.701Z,18.16
2022-09-15T10:58:51.955Z,18.03
2022-09-15T11:01:28.221Z,17.81
2022-09-15T11:04:33.211Z,17.78
2022-09-15T11:07:21.389Z,17.83
2022-09-15T11:09:59.489Z,17.83
2022-09-15T11:12:31.684Z,17.81
2022-09-15T11:15:33.487Z,17.77
2022-09-15T11:18:27.642Z,17.87
2022-09-15T11:21:05.935Z,17.87
2022-09-15T11:23:55.973Z,17.80
2022-09-15T11:26:30.369Z,17.78
2022-09-15T11:29:07.233Z,17.93
2022-09-15T11:31:40.993Z,18.02
2022-09-15T11:34:44.720Z,18.19
2022-09-15T11:37:17.361Z,18.37
2022-09-15T11:39:57.083Z,18.56
2022-09-15T11:42:34.304Z,18.19
2022-09-15T11:45:03.979Z,17.79
2022-09-15T11:47:44.966Z,17.76
2022-09-15T11:50:11.356Z,17.79
2022-09-15T11:52:56.492Z,18.10
2022-09-15T11:55:39.038Z,18.20
2022-09-15T11:58:21.984Z,18.40
2022-09-15T12:01:07.096Z,18.51
2022-09-15T12:03:56.281Z,18.49
2022-09-15T12:06:43.293Z,18.53
2022-09-15T12:09:16.096Z,18.47
2022-09-15T12:11:46.229Z,18.52
2022-09-15T12:14:34.787Z,18.32
2022-09-15T12:17:03.977Z,18.34
2022-09-15T12:19:33.527Z,18.15
2022-09-15T12:22:14.864Z,18.12
2022-09-15T12:24:51.098Z,18.15
2022-09-15T12:27:20.151Z,18.28
2022-09-15T12:29:55.165Z,18.46
2022-09-15T12:32:32.173Z,18.58
2022-09-15T12:35:17.653Z,18.63
2022-09-15T12:37:58.913Z,18.62
2022-09-15T12:40:36.095Z,18.50
2022-09-15T12:43:16.481Z,18.50
2022-09-15T12:45:53.525Z,18.45
2022-09-15T12:48:31.496Z,18.38
2022-09-15T12:51:10.280Z,18.18
2022-09-15T12:53:41.603Z,18.19
2022-09-15T12:56:24.350Z,18.10
2022-09-15T12:58:52.207Z,18.10
2022-09-15T13:01:19.842Z,18.24
2022-09-15T13:03:46.555Z,18.48
2022-09-15T13:06:18.151Z,18.32
2022-09-15T13:08:47.345Z,18.45
2022-09-15T13:11:38.746Z,18.28
2022-09-15T13:14:08.162Z,18.22
2022-09-15T13:17:03.002Z,18.18
2022-09-15T13:19:41.665Z,18.26
2022-09-15T13:22:11.322Z,18.44
2022-09-15T13:25:02.161Z,18.26
2022-09-15T13:28:03.052Z,18.19
2022-09-15T13:30:53.845Z,18.02
2022-09-15T13:40:25.396Z,17.74
2022-09-15T13:43:18.804Z,17.57
2022-09-15T13:46:27.434Z,17.62
2022-09-15T13:49:09.286Z,17.53
2022-09-15T13:51:39.453Z,17.61
2022-09-15T13:54:08.174Z,17.77
2022-09-15T13:56:39.504Z,17.86
2022-09-15T13:59:16.883Z,17.82
2022-09-15T14:01:44.541Z,17.90
2022-09-15T14:04:20.086Z,17.97
2022-09-15T14:06:50.353Z,17.32
2022-09-15T14:09:20.719Z,16.93
2022-09-15T14:12:00.025Z,16.72
2022-09-15T14:14:35.866Z,16.55
2022-09-15T14:17:02.821Z,16.51
2022-09-15T14:19:34.244Z,16.47
2022-09-15T14:22:20.074Z,16.46
2022-09-15T14:24:47.507Z,16.63
2022-09-15T14:27:24.348Z,16.68
2022-09-15T14:29:57.565Z,16.84
2022-09-15T14:32:26.618Z,16.98
2022-09-15T14:34:55.860Z,17.11
2022-09-15T14:37:28.483Z,17.15
2022-09-15T14:39:57.325Z,17.19
2022-09-15T14:42:30.745Z,17.28
2022-09-15T14:47:59.672Z,17.40
2022-09-15T14:50:30.334Z,17.44
2022-09-15T14:53:07.234Z,17.48
2022-09-15T14:55:45.260Z,17.58
2022-09-15T14:58:33.123Z,17.41
2022-09-15T15:01:30.272Z,17.18
2022-09-15T15:04:20.709Z,17.29
2022-09-15T15:07:00.036Z,17.26
2022-09-15T15:09:40.316Z,17.26
2022-09-15T15:12:23.679Z,17.19
2022-09-15T15:14:53.053Z,17.24
2022-09-15T15:17:42.021Z,17.17
2022-09-15T15:20:08.482Z,17.07
2022-09-15T15:22:39.210Z,16.96
2022-09-15T15:25:20.808Z,16.97
2022-09-15T15:28:00.489Z,16.82
2022-09-15T15:30:30.827Z,16.76
2022-09-15T15:32:57.660Z,16.73
2022-09-15T15:35:24.777Z,16.36
2022-09-15T15:38:15.099Z,15.84
2022-09-15T15:40:42.002Z,15.47
2022-09-15T15:43:27.028Z,15.31
2022-09-15T15:46:01.054Z,15.27
2022-09-15T15:48:35.254Z,15.22
2022-09-15T15:51:05.064Z,15.22
2022-09-15T15:53:31.812Z,15.16
2022-09-15T15:56:00.145Z,15.18
2022-09-15T15:58:27.153Z,15.17
2022-09-15T16:00:57.378Z,15.26
2022-09-15T16:03:25.024Z,15.25
2022-09-15T16:06:00.655Z,15.31
2022-09-15T16:08:31.049Z,15.38
2022-09-15T16:10:59.774Z,15.38
2022-09-15T16:13:26.436Z,15.30
2022-09-15T16:15:54.154Z,15.26
2022-09-15T16:18:21.338Z,15.12
2022-09-15T16:20:47.721Z,15.09
2022-09-15T16:23:20.097Z,15.07
2022-09-15T16:26:00.381Z,15.05
2022-09-15T16:28:26.863Z,15.09
2022-09-15T16:30:55.586Z,15.11
2022-09-15T16:33:22.160Z,15.19
2022-09-15T16:36:03.515Z,15.22
2022-09-15T16:38:30.049Z,15.05
2022-09-15T16:40:56.522Z,15.15
2022-09-15T16:43:23.433Z,15.12
2022-09-15T16:45:51.124Z,15.09
2022-09-15T16:48:20.537Z,15.14
2022-09-15T16:53:34.990Z,15.10
2022-09-15T16:56:01.836Z,15.09
2022-09-15T16:58:28.419Z,14.96
2022-09-15T17:00:55.035Z,14.91
2022-09-15T17:03:24.114Z,14.93
2022-09-15T17:05:52.991Z,14.90
2022-09-15T17:08:27.227Z,14.91
2022-09-15T17:10:56.400Z,14.85
2022-09-15T17:13:27.754Z,14.92
2022-09-15T17:15:57.530Z,14.85
2022-09-15T17:18:24.305Z,14.83
2022-09-15T17:20:51.301Z,14.85
2022-09-15T17:23:17.738Z,14.86
2022-09-15T17:25:49.025Z,14.82
2022-09-15T17:28:15.705Z,14.80
2022-09-15T17:30:42.603Z,14.78
2022-09-15T17:33:13.623Z,14.82
2022-09-15T17:35:40.319Z,14.87
2022-09-15T17:38:07.396Z,14.80
2022-09-15T17:40:35.688Z,14.63
2022-09-15T17:43:02.985Z,14.46
2022-09-15T17:45:36.305Z,14.39
2022-09-15T17:48:04.301Z,14.30
2022-09-15T17:50:32.179Z,14.21
2022-09-15T17:52:58.992Z,14.12
2022-09-15T17:55:31.827Z,14.12
2022-09-15T17:58:00.524Z,14.05
2022-09-15T18:00:30.338Z,14.04
2022-09-15T18:03:01.215Z,13.94
2022-09-15T18:05:37.650Z,14.02
2022-09-15T18:08:05.793Z,14.06
2022-09-15T18:10:35.704Z,14.12
2022-09-15T18:13:03.817Z,14.12
2022-09-15T18:15:31.171Z,14.14
2022-09-15T18:18:08.611Z,14.14
2022-09-15T18:20:37.340Z,13.95
2022-09-15T18:23:03.838Z,13.91
2022-09-15T18:25:36.924Z,13.93
2022-09-15T18:28:04.233Z,13.98
2022-09-15T18:30:33.949Z,13.98
2022-09-15T18:33:00.639Z,13.99
2022-09-15T18:35:27.079Z,14.03
2022-09-15T18:37:58.934Z,13.91
2022-09-15T18:40:27.285Z,13.86
2022-09-15T18:42:54.305Z,13.86
2022-09-15T18:45:22.113Z,13.88
2022-09-15T18:47:53.016Z,13.73
2022-09-15T18:50:24.287Z,13.77
2022-09-15T18:52:50.896Z,13.77
2022-09-15T18:55:20.197Z,13.74
2022-09-15T18:57:50.764Z,13.79
2022-09-15T19:00:22.519Z,13.83
2022-09-15T19:03:01.895Z,13.86
2022-09-15T19:05:33.355Z,13.88
2022-09-15T19:08:00.544Z,13.83
2022-09-15T19:10:27.195Z,13.85
2022-09-15T19:12:54.221Z,13.83
2022-09-15T19:15:23.696Z,13.85
2022-09-15T19:17:50.869Z,13.83
2022-09-15T19:20:21.102Z,13.84
2022-09-15T19:22:57.876Z,13.83
2022-09-15T19:25:24.606Z,13.83
2022-09-15T19:27:51.116Z,13.85
2022-09-15T19:30:17.699Z,13.95
2022-09-15T19:32:44.315Z,13.90
2022-09-15T19:35:11.318Z,13.91
2022-09-15T19:37:39.897Z,13.88
2022-09-15T19:40:09.686Z,13.61
2022-09-15T19:42:38.188Z,13.50
2022-09-15T19:45:05.331Z,13.45
2022-09-15T19:47:35.237Z,13.42
2022-09-15T19:50:02.126Z,13.41
2022-09-15T19:52:28.915Z,13.45
2022-09-15T19:54:55.857Z,13.40
2022-09-15T19:57:22.797Z,13.40
2022-09-15T19:59:53.218Z,13.43
2022-09-15T20:02:22.983Z,13.29
2022-09-15T20:04:52.971Z,13.23
2022-09-15T20:07:22.554Z,13.14
2022-09-15T20:09:52.095Z,13.16
2022-09-15T20:12:18.905Z,13.18
2022-09-15T20:14:46.022Z,13.17
2022-09-15T20:17:12.501Z,13.17
2022-09-15T20:19:39.026Z,13.11
2022-09-15T20:22:05.471Z,13.14
2022-09-15T20:24:34.250Z,13.16
2022-09-15T20:27:00.955Z,13.10
2022-09-15T20:29:27.470Z,13.16
2022-09-15T20:31:54.073Z,13.17
2022-09-15T20:34:20.515Z,13.24
2022-09-15T20:36:47.192Z,13.29
2022-09-15T20:39:15.918Z,13.27
2022-09-15T20:41:46.259Z,13.22
2022-09-15T20:44:13.213Z,13.22
2022-09-15T20:46:39.959Z,13.19
2022-09-15T20:49:07.118Z,13.17
2022-09-15T20:51:35.852Z,13.22
2022-09-15T20:54:06.104Z,13.24
2022-09-15T20:56:35.062Z,13.29
2022-09-15T20:59:02.569Z,13.17
2022-09-15T21:01:33.580Z,13.20
2022-09-15T21:04:00.099Z,13.18
2022-09-15T21:06:28.152Z,13.17
2022-09-15T21:08:55.651Z,13.11
2022-09-15T21:11:23.960Z,13.16
2022-09-15T21:13:50.704Z,13.05
2022-09-15T21:16:20.615Z,13.06
2022-09-15T21:18:50.605Z,13.08
2022-09-15T21:21:29.729Z,13.04
2022-09-15T21:24:03.554Z,13.04
2022-09-15T21:26:33.106Z,13.06
2022-09-15T21:28:59.789Z,12.97
2022-09-15T21:31:29.439Z,12.94
2022-09-15T21:33:56.587Z,12.96
2022-09-15T21:36:30.844Z,12.97
2022-09-15T21:38:58.891Z,12.97
2022-09-15T21:41:26.484Z,12.99
2022-09-15T21:43:54.960Z,13.05
2022-09-15T21:46:23.781Z,13.05
2022-09-15T21:48:50.321Z,13.07
2022-09-15T21:51:24.358Z,13.10
2022-09-15T21:53:53.455Z,13.12
2022-09-15T21:56:20.860Z,13.18
2022-09-15T21:58:47.503Z,13.14
2022-09-15T22:01:16.060Z,13.22
2022-09-15T22:03:42.995Z,13.19
2022-09-15T22:06:10.890Z,13.19
2022-09-15T22:08:40.802Z,13.16
2022-09-15T22:11:08.344Z,13.30
2022-09-15T22:13:40.653Z,13.27
2022-09-15T22:16:11.035Z,13.35
2022-09-15T22:18:39.825Z,13.35
2022-09-15T22:21:13.572Z,13.34
2022-09-15T22:23:40.514Z,13.27
2022-09-15T22:26:09.952Z,13.21
2022-09-15T22:28:36.422Z,13.22
2022-09-15T22:31:05.757Z,13.21
2022-09-15T22:33:32.490Z,13.21
2022-09-15T22:35:58.962Z,13.19
2022-09-15T22:38:28.945Z,13.26
2022-09-15T22:40:56.022Z,13.29
2022-09-15T22:43:23.114Z,13.25
2022-09-15T22:45:53.709Z,13.24
2022-09-15T22:48:20.186Z,13.21
2022-09-15T22:50:46.789Z,13.24
2022-09-15T22:53:13.284Z,13.23
2022-09-15T22:55:40.089Z,13.22
2022-09-15T22:58:07.547Z,13.18
2022-09-15T23:00:34.731Z,13.16
2022-09-15T23:03:01.179Z,13.11
2022-09-15T23:05:27.650Z,12.87
2022-09-15T23:07:54.225Z,12.68
2022-09-15T23:10:20.639Z,12.64
2022-09-15T23:12:47.138Z,12.65
2022-09-15T23:15:14.034Z,12.68
2022-09-15T23:17:40.557Z,12.68
2022-09-15T23:20:07.278Z,12.56
2022-09-15T23:22:33.750Z,12.57
2022-09-15T23:25:00.186Z,12.55
2022-09-15T23:27:26.702Z,12.44
2022-09-15T23:29:53.322Z,12.30
2022-09-15T23:32:20.026Z,12.30
2022-09-15T23:34:46.581Z,12.19
2022-09-15T23:37:13.034Z,12.20
2022-09-15T23:39:39.450Z,12.26
2022-09-15T23:42:06.394Z,12.30
2022-09-15T23:44:33.028Z,12.44
2022-09-15T23:47:00.394Z,12.46
2022-09-15T23:49:27.003Z,12.51
2022-09-15T23:51:53.464Z,12.56
2022-09-15T23:54:22.934Z,12.63
2022-09-15T23:56:52.440Z,12.65
2022-09-15T23:59:18.998Z,12.67
